Marmarth, North Dakota
Current Conditions -  °F | °C
As of 9:51 AM on Saturday 25 Oct 2014 (Local Time) from KBHK Reporting Station
Clear Clear  
Wind Chill: 53°   Ceiling: Unl
Heat Index: 53°   Visibility: 10mi
Dew Point: 33°   Wind: 13mph
Humidity: 47%   Direction: 130°SE
Pressure: 30.12"   Gusts: NA
Location:  46.3°N, 103.92°W
Report Text: KBHK 251551Z AUTO 13011KT 10SM CLR 12/01 A3012 RMK AO2 SLP201 T01170006
Loading
Personal Weather Stations






























Interactive Weather Map
Tropical Storm Tracking
New forecast layout! Learn more

10-Day Weather Forecast

Advertisements
Track Severe Weather on mobile